sensor_id;sensor_type;location;lat;lon;timestamp;pressure;altitude;pressure_sealevel;temperature;humidity
75424;BME280;64005;55.160;36.002;2024-02-26T00:00:27;100080.03;;;-0.75;73.77
75424;BME280;64005;55.160;36.002;2024-02-26T00:02:54;100081.09;;;-0.76;73.90
75424;BME280;64005;55.160;36.002;2024-02-26T00:05:21;100076.47;;;-0.76;74.50
75424;BME280;64005;55.160;36.002;2024-02-26T00:07:49;100080.88;;;-0.75;73.79
75424;BME280;64005;55.160;36.002;2024-02-26T00:10:33;100075.97;;;-0.73;74.09
75424;BME280;64005;55.160;36.002;2024-02-26T00:13:00;100071.13;;;-0.71;73.64
75424;BME280;64005;55.160;36.002;2024-02-26T00:15:27;100080.16;;;-0.70;73.74
75424;BME280;64005;55.160;36.002;2024-02-26T00:17:55;100073.84;;;-0.71;73.93
75424;BME280;64005;55.160;36.002;2024-02-26T00:20:22;100081.81;;;-0.69;73.53
75424;BME280;64005;55.160;36.002;2024-02-26T00:22:49;100079.09;;;-0.69;74.29
75424;BME280;64005;55.160;36.002;2024-02-26T00:25:17;100081.34;;;-0.66;74.46
75424;BME280;64005;55.160;36.002;2024-02-26T00:27:46;100069.59;;;-0.67;74.30
75424;BME280;64005;55.160;36.002;2024-02-26T00:30:13;100079.44;;;-0.66;74.23
75424;BME280;64005;55.160;36.002;2024-02-26T00:32:40;100078.84;;;-0.68;74.28
75424;BME280;64005;55.160;36.002;2024-02-26T00:35:23;100076.13;;;-0.68;73.70
75424;BME280;64005;55.160;36.002;2024-02-26T00:37:50;100075.06;;;-0.67;73.79
75424;BME280;64005;55.160;36.002;2024-02-26T00:40:18;100069.59;;;-0.67;73.95
75424;BME280;64005;55.160;36.002;2024-02-26T00:42:46;100069.09;;;-0.64;73.39
75424;BME280;64005;55.160;36.002;2024-02-26T00:45:14;100066.97;;;-0.62;73.46
75424;BME280;64005;55.160;36.002;2024-02-26T00:47:42;100068.28;;;-0.64;74.33
75424;BME280;64005;55.160;36.002;2024-02-26T00:50:10;100075.41;;;-0.63;73.99
75424;BME280;64005;55.160;36.002;2024-02-26T00:52:38;100074.94;;;-0.60;73.97
75424;BME280;64005;55.160;36.002;2024-02-26T00:55:06;100078.75;;;-0.61;73.91
75424;BME280;64005;55.160;36.002;2024-02-26T00:57:34;100074.34;;;-0.62;73.99
75424;BME280;64005;55.160;36.002;2024-02-26T01:00:03;100076.69;;;-0.66;74.07
75424;BME280;64005;55.160;36.002;2024-02-26T01:02:42;100081.59;;;-0.68;73.83
75424;BME280;64005;55.160;36.002;2024-02-26T01:05:12;100076.13;;;-0.68;74.04
75424;BME280;64005;55.160;36.002;2024-02-26T01:07:40;100065.44;;;-0.69;74.20
75424;BME280;64005;55.160;36.002;2024-02-26T01:10:07;100074.91;;;-0.72;73.83
75424;BME280;64005;55.160;36.002;2024-02-26T01:12:35;100071.97;;;-0.70;73.97
75424;BME280;64005;55.160;36.002;2024-02-26T01:15:05;100061.75;;;-0.75;74.19
75424;BME280;64005;55.160;36.002;2024-02-26T01:17:33;100069.44;;;-0.72;74.26
75424;BME280;64005;55.160;36.002;2024-02-26T01:20:00;100069.00;;;-0.69;73.34
75424;BME280;64005;55.160;36.002;2024-02-26T01:22:29;100069.22;;;-0.70;73.23
75424;BME280;64005;55.160;36.002;2024-02-26T01:24:56;100064.81;;;-0.71;73.83
75424;BME280;64005;55.160;36.002;2024-02-26T01:27:24;100061.53;;;-0.73;73.79
75424;BME280;64005;55.160;36.002;2024-02-26T01:30:00;100064.00;;;-0.72;74.07
75424;BME280;64005;55.160;36.002;2024-02-26T01:32:32;100068.88;;;-0.74;73.93
75424;BME280;64005;55.160;36.002;2024-02-26T01:34:59;100073.50;;;-0.74;73.92
75424;BME280;64005;55.160;36.002;2024-02-26T01:37:29;100064.25;;;-0.73;73.23
75424;BME280;64005;55.160;36.002;2024-02-26T01:39:57;100068.03;;;-0.74;73.41
75424;BME280;64005;55.160;36.002;2024-02-26T01:42:24;100058.19;;;-0.75;73.12
75424;BME280;64005;55.160;36.002;2024-02-26T01:44:51;100057.13;;;-0.74;73.25
75424;BME280;64005;55.160;36.002;2024-02-26T01:47:19;100059.25;;;-0.76;73.47
75424;BME280;64005;55.160;36.002;2024-02-26T01:49:47;100055.91;;;-0.78;73.94
75424;BME280;64005;55.160;36.002;2024-02-26T01:55:22;100060.81;;;-0.81;73.06
75424;BME280;64005;55.160;36.002;2024-02-26T01:57:51;100059.34;;;-0.83;73.18
75424;BME280;64005;55.160;36.002;2024-02-26T02:00:20;100050.34;;;-0.84;73.29
75424;BME280;64005;55.160;36.002;2024-02-26T02:02:48;100050.56;;;-0.85;73.09
75424;BME280;64005;55.160;36.002;2024-02-26T02:05:17;100048.91;;;-0.86;73.80
75424;BME280;64005;55.160;36.002;2024-02-26T02:07:44;100040.69;;;-0.86;73.53
75424;BME280;64005;55.160;36.002;2024-02-26T02:10:12;100044.53;;;-0.87;73.40
75424;BME280;64005;55.160;36.002;2024-02-26T02:12:40;100043.31;;;-0.91;73.67
75424;BME280;64005;55.160;36.002;2024-02-26T02:15:08;100045.22;;;-0.92;73.23
75424;BME280;64005;55.160;36.002;2024-02-26T02:17:36;100038.34;;;-0.94;73.11
75424;BME280;64005;55.160;36.002;2024-02-26T02:20:05;100040.81;;;-0.93;73.23
75424;BME280;64005;55.160;36.002;2024-02-26T02:22:36;100033.72;;;-0.94;72.81
75424;BME280;64005;55.160;36.002;2024-02-26T02:25:05;100041.31;;;-0.96;73.03
75424;BME280;64005;55.160;36.002;2024-02-26T02:27:32;100052.44;;;-0.97;73.40
75424;BME280;64005;55.160;36.002;2024-02-26T02:30:00;100042.59;;;-0.98;72.94
75424;BME280;64005;55.160;36.002;2024-02-26T02:32:31;100039.97;;;-1.05;73.08
75424;BME280;64005;55.160;36.002;2024-02-26T02:34:58;100031.22;;;-1.07;73.08
75424;BME280;64005;55.160;36.002;2024-02-26T02:37:26;100029.53;;;-1.08;73.28
75424;BME280;64005;55.160;36.002;2024-02-26T02:39:54;100034.75;;;-1.06;73.09
75424;BME280;64005;55.160;36.002;2024-02-26T02:42:24;100034.75;;;-1.06;73.49
75424;BME280;64005;55.160;36.002;2024-02-26T02:44:51;100035.84;;;-1.07;73.58
75424;BME280;64005;55.160;36.002;2024-02-26T02:47:18;100035.44;;;-1.11;72.89
75424;BME280;64005;55.160;36.002;2024-02-26T02:49:46;100033.44;;;-1.15;72.82
75424;BME280;64005;55.160;36.002;2024-02-26T02:52:13;100041.63;;;-1.15;73.55
75424;BME280;64005;55.160;36.002;2024-02-26T02:54:40;100031.16;;;-1.18;72.92
75424;BME280;64005;55.160;36.002;2024-02-26T02:57:09;100028.44;;;-1.18;73.45
75424;BME280;64005;55.160;36.002;2024-02-26T02:59:37;100033.91;;;-1.18;72.86
75424;BME280;64005;55.160;36.002;2024-02-26T03:02:05;100019.06;;;-1.23;73.38
75424;BME280;64005;55.160;36.002;2024-02-26T03:04:32;100027.47;;;-1.24;72.81
75424;BME280;64005;55.160;36.002;2024-02-26T03:06:59;100027.03;;;-1.21;72.71
75424;BME280;64005;55.160;36.002;2024-02-26T03:09:27;100019.91;;;-1.22;73.47
75424;BME280;64005;55.160;36.002;2024-02-26T03:11:54;100027.03;;;-1.21;73.11
75424;BME280;64005;55.160;36.002;2024-02-26T03:14:23;100016.09;;;-1.21;72.71
75424;BME280;64005;55.160;36.002;2024-02-26T03:16:53;100023.69;;;-1.23;73.00
75424;BME280;64005;55.160;36.002;2024-02-26T03:19:21;100017.16;;;-1.22;72.68
75424;BME280;64005;55.160;36.002;2024-02-26T03:21:48;100010.75;;;-1.28;73.13
75424;BME280;64005;55.160;36.002;2024-02-26T03:24:16;100024.28;;;-1.21;72.56
75424;BME280;64005;55.160;36.002;2024-02-26T03:26:43;100025.34;;;-1.22;73.24
75424;BME280;64005;55.160;36.002;2024-02-26T03:29:10;100018.84;;;-1.21;72.98
75424;BME280;64005;55.160;36.002;2024-02-26T03:31:39;100011.22;;;-1.19;72.37
75424;BME280;64005;55.160;36.002;2024-02-26T03:34:06;100014.56;;;-1.17;72.76
75424;BME280;64005;55.160;36.002;2024-02-26T03:36:33;100016.94;;;-1.21;72.72
75424;BME280;64005;55.160;36.002;2024-02-26T03:39:01;100013.84;;;-1.24;72.70
75424;BME280;64005;55.160;36.002;2024-02-26T03:41:33;100002.56;;;-1.28;73.13
75424;BME280;64005;55.160;36.002;2024-02-26T03:44:00;100015.72;;;-1.25;72.99
75424;BME280;64005;55.160;36.002;2024-02-26T03:46:28;100010.28;;;-1.25;72.92
75424;BME280;64005;55.160;36.002;2024-02-26T03:48:56;100012.78;;;-1.23;72.98
75424;BME280;64005;55.160;36.002;2024-02-26T03:51:24;100014.88;;;-1.25;72.73
75424;BME280;64005;55.160;36.002;2024-02-26T03:53:50;100009.69;;;-1.27;73.19
75424;BME280;64005;55.160;36.002;2024-02-26T03:56:17;100014.53;;;-1.29;72.78
75424;BME280;64005;55.160;36.002;2024-02-26T03:58:44;100017.28;;;-1.29;72.51
75424;BME280;64005;55.160;36.002;2024-02-26T04:01:12;100009.69;;;-1.27;73.10
75424;BME280;64005;55.160;36.002;2024-02-26T04:03:39;100017.28;;;-1.29;72.31
75424;BME280;64005;55.160;36.002;2024-02-26T04:06:10;100010.97;;;-1.29;73.23
75424;BME280;64005;55.160;36.002;2024-02-26T04:08:40;100003.50;;;-1.34;72.84
75424;BME280;64005;55.160;36.002;2024-02-26T04:11:07;100009.31;;;-1.30;73.17
75424;BME280;64005;55.160;36.002;2024-02-26T04:13:34;100006.59;;;-1.30;72.97
75424;BME280;64005;55.160;36.002;2024-02-26T04:16:04;100007.41;;;-1.30;72.96
75424;BME280;64005;55.160;36.002;2024-02-26T04:18:31;100006.59;;;-1.30;73.13
75424;BME280;64005;55.160;36.002;2024-02-26T04:20:59;100013.94;;;-1.31;72.97
75424;BME280;64005;55.160;36.002;2024-02-26T04:23:27;100006.81;;;-1.32;72.69
75424;BME280;64005;55.160;36.002;2024-02-26T04:25:55;100011.44;;;-1.32;72.87
75424;BME280;64005;55.160;36.002;2024-02-26T04:28:22;100000.16;;;-1.36;72.58
75424;BME280;64005;55.160;36.002;2024-02-26T04:30:51;100007.75;;;-1.38;72.36
75424;BME280;64005;55.160;36.002;2024-02-26T04:33:18;100007.53;;;-1.36;72.82
75424;BME280;64005;55.160;36.002;2024-02-26T04:35:46;100009.41;;;-1.37;72.39
75424;BME280;64005;55.160;36.002;2024-02-26T04:38:13;100011.31;;;-1.37;72.36
75424;BME280;64005;55.160;36.002;2024-02-26T04:40:41;100014.88;;;-1.37;72.94
75424;BME280;64005;55.160;36.002;2024-02-26T04:43:09;100012.16;;;-1.37;72.88
75424;BME280;64005;55.160;36.002;2024-02-26T04:45:36;100009.81;;;-1.33;72.38
75424;BME280;64005;55.160;36.002;2024-02-26T04:48:04;100016.06;;;-1.33;72.60
75424;BME280;64005;55.160;36.002;2024-02-26T04:50:31;100010.03;;;-1.35;73.00
75424;BME280;64005;55.160;36.002;2024-02-26T04:52:59;100015.47;;;-1.35;72.71
75424;BME280;64005;55.160;36.002;2024-02-26T04:55:27;100010.25;;;-1.36;72.50
75424;BME280;64005;55.160;36.002;2024-02-26T04:58:03;100012.97;;;-1.36;72.33
75424;BME280;64005;55.160;36.002;2024-02-26T05:00:30;100022.00;;;-1.36;72.78
75424;BME280;64005;55.160;36.002;2024-02-26T05:02:57;100016.78;;;-1.37;72.67
75424;BME280;64005;55.160;36.002;2024-02-26T05:05:25;100014.66;;;-1.35;72.96
75424;BME280;64005;55.160;36.002;2024-02-26T05:07:52;100018.44;;;-1.36;73.01
75424;BME280;64005;55.160;36.002;2024-02-26T05:10:19;100017.84;;;-1.38;72.99
75424;BME280;64005;55.160;36.002;2024-02-26T05:12:47;100026.84;;;-1.38;72.42
75424;BME280;64005;55.160;36.002;2024-02-26T05:15:15;100021.63;;;-1.39;72.58
75424;BME280;64005;55.160;36.002;2024-02-26T05:17:53;100018.66;;;-1.38;72.39
75424;BME280;64005;55.160;36.002;2024-02-26T05:20:21;100028.06;;;-1.34;73.00
75424;BME280;64005;55.160;36.002;2024-02-26T05:22:48;100026.28;;;-1.28;72.94
75424;BME280;64005;55.160;36.002;2024-02-26T05:25:16;100016.22;;;-1.28;72.61
75424;BME280;64005;55.160;36.002;2024-02-26T05:27:44;100020.34;;;-1.25;73.00
75424;BME280;64005;55.160;36.002;2024-02-26T05:30:12;100020.34;;;-1.25;72.84
75424;BME280;64005;55.160;36.002;2024-02-26T05:32:41;100024.75;;;-1.24;72.50
75424;BME280;64005;55.160;36.002;2024-02-26T05:35:08;100011.72;;;-1.22;72.32
75424;BME280;64005;55.160;36.002;2024-02-26T05:37:38;100023.22;;;-1.20;73.13
75424;BME280;64005;55.160;36.002;2024-02-26T05:40:06;100013.72;;;-1.17;72.25
75424;BME280;64005;55.160;36.002;2024-02-26T05:42:33;100024.03;;;-1.20;73.04
75424;BME280;64005;55.160;36.002;2024-02-26T05:45:01;100025.69;;;-1.18;72.42
75424;BME280;64005;55.160;36.002;2024-02-26T05:47:32;100025.47;;;-1.17;73.12
75424;BME280;64005;55.160;36.002;2024-02-26T05:50:01;100027.75;;;-1.14;73.13
75424;BME280;64005;55.160;36.002;2024-02-26T05:52:29;100025.03;;;-1.14;73.28
75424;BME280;64005;55.160;36.002;2024-02-26T05:54:57;100022.41;;;-1.09;73.27
75424;BME280;64005;55.160;36.002;2024-02-26T05:57:24;100023.81;;;-1.06;72.76
75424;BME280;64005;55.160;36.002;2024-02-26T05:59:52;100026.81;;;-1.08;72.84
75424;BME280;64005;55.160;36.002;2024-02-26T06:02:19;100025.75;;;-1.07;73.16
75424;BME280;64005;55.160;36.002;2024-02-26T06:04:46;100028.00;;;-1.04;72.48
75424;BME280;64005;55.160;36.002;2024-02-26T06:07:15;100020.84;;;-1.05;72.97
75424;BME280;64005;55.160;36.002;2024-02-26T06:09:42;100025.88;;;-1.02;72.63
75424;BME280;64005;55.160;36.002;2024-02-26T06:12:09;100033.34;;;-0.97;72.47
75424;BME280;64005;55.160;36.002;2024-02-26T06:14:37;100029.31;;;-0.95;72.47
75424;BME280;64005;55.160;36.002;2024-02-26T06:17:04;100023.38;;;-0.92;73.10
75424;BME280;64005;55.160;36.002;2024-02-26T06:19:32;100029.19;;;-0.88;72.49
75424;BME280;64005;55.160;36.002;2024-02-26T06:22:00;100030.88;;;-0.87;72.56
75424;BME280;64005;55.160;36.002;2024-02-26T06:24:28;100027.19;;;-0.81;72.96
75424;BME280;64005;55.160;36.002;2024-02-26T06:26:56;100018.03;;;-0.75;73.02
75424;BME280;64005;55.160;36.002;2024-02-26T06:29:41;100023.72;;;-0.65;73.13
75424;BME280;64005;55.160;36.002;2024-02-26T06:32:09;100023.84;;;-0.60;72.71
75424;BME280;64005;55.160;36.002;2024-02-26T06:34:36;100024.19;;;-0.56;72.96
75424;BME280;64005;55.160;36.002;2024-02-26T06:37:04;100019.06;;;-0.53;73.34
75424;BME280;64005;55.160;36.002;2024-02-26T06:39:33;100024.06;;;-0.50;73.41
75424;BME280;64005;55.160;36.002;2024-02-26T06:42:01;100016.00;;;-0.45;73.36
75424;BME280;64005;55.160;36.002;2024-02-26T06:44:28;100020.75;;;-0.40;72.59
75424;BME280;64005;55.160;36.002;2024-02-26T06:46:58;100026.31;;;-0.35;72.37
75424;BME280;64005;55.160;36.002;2024-02-26T06:49:25;100022.03;;;-0.31;73.27
75424;BME280;64005;55.160;36.002;2024-02-26T06:51:53;100020.00;;;-0.24;72.85
75424;BME280;64005;55.160;36.002;2024-02-26T06:54:20;100020.69;;;-0.17;73.00
75424;BME280;64005;55.160;36.002;2024-02-26T06:56:49;100012.69;;;-0.07;72.38
75424;BME280;64005;55.160;36.002;2024-02-26T06:59:16;100019.81;;;-0.06;72.77
75424;BME280;64005;55.160;36.002;2024-02-26T07:01:45;100010.47;;;-0.10;72.42
75424;BME280;64005;55.160;36.002;2024-02-26T07:04:13;100019.72;;;-0.11;72.96
75424;BME280;64005;55.160;36.002;2024-02-26T07:06:40;100011.44;;;-0.16;72.51
75424;BME280;64005;55.160;36.002;2024-02-26T07:09:08;100021.50;;;-0.05;73.29
75424;BME280;64005;55.160;36.002;2024-02-26T07:11:38;100026.00;;;0.02;73.36
75424;BME280;64005;55.160;36.002;2024-02-26T07:14:12;100022.78;;;0.05;73.32
75424;BME280;64005;55.160;36.002;2024-02-26T07:16:39;100022.28;;;0.08;73.30
75424;BME280;64005;55.160;36.002;2024-02-26T07:19:07;100023.94;;;0.09;73.23
75424;BME280;64005;55.160;36.002;2024-02-26T07:21:34;100027.38;;;0.16;73.07
75424;BME280;64005;55.160;36.002;2024-02-26T07:24:02;100026.63;;;0.20;72.61
75424;BME280;64005;55.160;36.002;2024-02-26T07:26:29;100021.16;;;0.20;72.52
75424;BME280;64005;55.160;36.002;2024-02-26T07:28:56;100022.59;;;0.23;72.76
75424;BME280;64005;55.160;36.002;2024-02-26T07:31:27;100022.00;;;0.21;73.27
75424;BME280;64005;55.160;36.002;2024-02-26T07:33:54;100017.88;;;0.18;72.62
75424;BME280;64005;55.160;36.002;2024-02-26T07:36:23;100025.00;;;0.19;72.55
75424;BME280;64005;55.160;36.002;2024-02-26T07:38:50;100033.16;;;0.31;73.16
75424;BME280;64005;55.160;36.002;2024-02-26T07:41:20;100029.19;;;0.38;72.43
75424;BME280;64005;55.160;36.002;2024-02-26T07:43:57;100032.25;;;0.42;72.65
75424;BME280;64005;55.160;36.002;2024-02-26T07:46:45;100033.09;;;0.43;72.46
75424;BME280;64005;55.160;36.002;2024-02-26T07:49:12;100018.44;;;0.49;72.89
75424;BME280;64005;55.160;36.002;2024-02-26T07:51:39;100020.44;;;0.53;72.66
75424;BME280;64005;55.160;36.002;2024-02-26T07:54:07;100015.91;;;0.59;72.69
75424;BME280;64005;55.160;36.002;2024-02-26T07:56:34;100010.34;;;0.70;72.98
75424;BME280;64005;55.160;36.002;2024-02-26T07:59:01;100017.56;;;0.76;72.42
75424;BME280;64005;55.160;36.002;2024-02-26T08:01:29;100022.13;;;0.88;73.05
75424;BME280;64005;55.160;36.002;2024-02-26T08:03:58;100025.88;;;0.98;72.68
75424;BME280;64005;55.160;36.002;2024-02-26T08:06:50;100026.22;;;1.02;72.75
75424;BME280;64005;55.160;36.002;2024-02-26T08:09:30;100025.22;;;1.08;72.71
75424;BME280;64005;55.160;36.002;2024-02-26T08:11:59;100024.13;;;1.09;73.18
75424;BME280;64005;55.160;36.002;2024-02-26T08:14:27;100017.66;;;1.15;73.28
75424;BME280;64005;55.160;36.002;2024-02-26T08:16:54;100018.06;;;1.24;73.21
75424;BME280;64005;55.160;36.002;2024-02-26T08:19:23;100015.81;;;1.37;72.77
75424;BME280;64005;55.160;36.002;2024-02-26T08:21:50;100014.88;;;1.48;73.33
75424;BME280;64005;55.160;36.002;2024-02-26T08:24:24;100021.06;;;1.60;72.70
75424;BME280;64005;55.160;36.002;2024-02-26T08:26:52;100023.63;;;1.67;72.68
75424;BME280;64005;55.160;36.002;2024-02-26T08:29:21;100019.06;;;1.73;72.99
75424;BME280;64005;55.160;36.002;2024-02-26T08:31:48;100025.13;;;1.75;72.60
75424;BME280;64005;55.160;36.002;2024-02-26T08:34:16;100032.03;;;1.77;72.65
75424;BME280;64005;55.160;36.002;2024-02-26T08:36:45;100033.09;;;1.76;72.60
75424;BME280;64005;55.160;36.002;2024-02-26T08:39:17;100032.78;;;1.73;72.38
75424;BME280;64005;55.160;36.002;2024-02-26T08:41:45;100023.72;;;1.72;72.66
75424;BME280;64005;55.160;36.002;2024-02-26T08:44:26;100016.75;;;1.86;72.67
75424;BME280;64005;55.160;36.002;2024-02-26T08:46:54;100011.91;;;1.93;72.68
75424;BME280;64005;55.160;36.002;2024-02-26T08:49:21;100007.84;;;1.96;72.60
75424;BME280;64005;55.160;36.002;2024-02-26T08:51:51;100004.31;;;2.00;72.43
75424;BME280;64005;55.160;36.002;2024-02-26T08:54:18;100007.50;;;2.14;72.76
75424;BME280;64005;55.160;36.002;2024-02-26T08:56:45;100014.50;;;2.27;72.60
75424;BME280;64005;55.160;36.002;2024-02-26T08:59:12;100004.78;;;2.41;72.72
75424;BME280;64005;55.160;36.002;2024-02-26T09:01:42;100008.78;;;2.55;72.62
75424;BME280;64005;55.160;36.002;2024-02-26T09:07:09;100017.06;;;2.60;72.50
75424;BME280;64005;55.160;36.002;2024-02-26T09:09:47;100000.34;;;2.62;72.60
75424;BME280;64005;55.160;36.002;2024-02-26T09:12:14;100006.72;;;2.67;72.44
75424;BME280;64005;55.160;36.002;2024-02-26T09:14:42;100012.00;;;2.74;72.54
75424;BME280;64005;55.160;36.002;2024-02-26T09:17:09;100006.19;;;2.70;72.06
75424;BME280;64005;55.160;36.002;2024-02-26T09:19:36;100012.81;;;2.74;72.53
75424;BME280;64005;55.160;36.002;2024-02-26T09:22:04;100005.66;;;2.73;72.09
75424;BME280;64005;55.160;36.002;2024-02-26T09:24:33;100006.19;;;2.70;72.26
75424;BME280;64005;55.160;36.002;2024-02-26T09:27:00;100008.31;;;2.63;72.20
75424;BME280;64005;55.160;36.002;2024-02-26T09:32:32;100007.91;;;2.50;71.73
75424;BME280;64005;55.160;36.002;2024-02-26T09:34:59;99995.81;;;2.46;71.72
75424;BME280;64005;55.160;36.002;2024-02-26T09:37:33;100002.94;;;2.47;72.12
75424;BME280;64005;55.160;36.002;2024-02-26T09:40:13;99998.34;;;2.52;71.75
75424;BME280;64005;55.160;36.002;2024-02-26T09:42:47;100001.88;;;2.53;71.84
75424;BME280;64005;55.160;36.002;2024-02-26T09:45:37;99994.47;;;2.53;72.21
75424;BME280;64005;55.160;36.002;2024-02-26T09:48:05;100001.44;;;2.61;72.07
75424;BME280;64005;55.160;36.002;2024-02-26T09:50:42;99992.13;;;2.67;72.01
75424;BME280;64005;55.160;36.002;2024-02-26T09:53:11;99988.06;;;2.69;72.02
75424;BME280;64005;55.160;36.002;2024-02-26T09:55:50;99993.25;;;2.66;71.84
75424;BME280;64005;55.160;36.002;2024-02-26T09:58:18;99991.84;;;2.63;71.75
75424;BME280;64005;55.160;36.002;2024-02-26T10:00:49;99983.84;;;2.62;71.50
75424;BME280;64005;55.160;36.002;2024-02-26T10:06:34;99984.03;;;2.50;71.21
75424;BME280;64005;55.160;36.002;2024-02-26T10:09:10;99982.66;;;2.53;71.74
75424;BME280;64005;55.160;36.002;2024-02-26T10:11:40;99978.84;;;2.54;71.72
75424;BME280;64005;55.160;36.002;2024-02-26T10:14:24;99982.75;;;2.58;71.33
75424;BME280;64005;55.160;36.002;2024-02-26T10:16:51;99972.00;;;2.56;71.37
75424;BME280;64005;55.160;36.002;2024-02-26T10:19:29;99964.84;;;2.55;71.43
75424;BME280;64005;55.160;36.002;2024-02-26T10:21:57;99969.84;;;2.58;71.80
75424;BME280;64005;55.160;36.002;2024-02-26T10:24:31;99957.47;;;2.61;71.23
75424;BME280;64005;55.160;36.002;2024-02-26T10:27:13;99967.00;;;2.53;70.99
75424;BME280;64005;55.160;36.002;2024-02-26T10:29:44;99954.03;;;2.44;71.02
75424;BME280;64005;55.160;36.002;2024-02-26T10:32:17;99967.50;;;2.45;71.31
75424;BME280;64005;55.160;36.002;2024-02-26T10:34:45;99962.31;;;2.49;71.16
75424;BME280;64005;55.160;36.002;2024-02-26T10:37:12;99957.66;;;2.49;71.19
75424;BME280;64005;55.160;36.002;2024-02-26T10:39:46;99957.41;;;2.51;71.01
75424;BME280;64005;55.160;36.002;2024-02-26T10:42:15;99954.13;;;2.54;71.04
75424;BME280;64005;55.160;36.002;2024-02-26T10:44:45;99959.69;;;2.59;70.64
75424;BME280;64005;55.160;36.002;2024-02-26T10:47:35;99950.31;;;2.60;71.06
75424;BME280;64005;55.160;36.002;2024-02-26T10:50:07;99941.31;;;2.64;71.08
75424;BME280;64005;55.160;36.002;2024-02-26T10:52:37;99938.59;;;2.69;70.79
75424;BME280;64005;55.160;36.002;2024-02-26T10:55:05;99932.91;;;2.76;70.93
75424;BME280;64005;55.160;36.002;2024-02-26T10:57:42;99932.09;;;2.80;71.11
75424;BME280;64005;55.160;36.002;2024-02-26T11:00:14;99936.50;;;2.82;70.84
75424;BME280;64005;55.160;36.002;2024-02-26T11:02:44;99938.47;;;2.86;71.13
75424;BME280;64005;55.160;36.002;2024-02-26T11:05:12;99936.59;;;2.92;71.15
75424;BME280;64005;55.160;36.002;2024-02-26T11:07:41;99924.84;;;3.01;70.86
75424;BME280;64005;55.160;36.002;2024-02-26T11:10:11;99930.66;;;3.05;70.96
75424;BME280;64005;55.160;36.002;2024-02-26T11:12:39;99938.09;;;3.09;70.84
75424;BME280;64005;55.160;36.002;2024-02-26T11:15:28;99929.91;;;3.19;70.56
75424;BME280;64005;55.160;36.002;2024-02-26T11:17:58;99927.22;;;3.30;70.47
75424;BME280;64005;55.160;36.002;2024-02-26T11:20:28;99927.84;;;3.42;71.15
75424;BME280;64005;55.160;36.002;2024-02-26T11:26:14;99922.69;;;3.55;70.40
75424;BME280;64005;55.160;36.002;2024-02-26T11:28:44;99918.28;;;3.59;70.26
75424;BME280;64005;55.160;36.002;2024-02-26T11:31:19;99925.75;;;3.64;70.29
75424;BME280;64005;55.160;36.002;2024-02-26T11:33:53;99919.72;;;3.67;70.82
75424;BME280;64005;55.160;36.002;2024-02-26T11:36:20;99924.38;;;3.67;70.27
75424;BME280;64005;55.160;36.002;2024-02-26T11:38:48;99924.94;;;3.64;70.15
75424;BME280;64005;55.160;36.002;2024-02-26T11:41:17;99925.72;;;3.59;70.08
75424;BME280;64005;55.160;36.002;2024-02-26T11:44:07;99910.34;;;3.58;69.93
75424;BME280;64005;55.160;36.002;2024-02-26T11:46:40;99924.34;;;3.56;69.99
75424;BME280;64005;55.160;36.002;2024-02-26T11:52:15;99920.25;;;3.64;70.34
75424;BME280;64005;55.160;36.002;2024-02-26T11:54:47;99917.78;;;3.68;69.99
75424;BME280;64005;55.160;36.002;2024-02-26T12:00:39;99912.84;;;3.65;70.27
75424;BME280;64005;55.160;36.002;2024-02-26T12:06:20;99916.34;;;3.55;69.70
75424;BME280;64005;55.160;36.002;2024-02-26T12:08:53;99920.75;;;3.51;69.39
75424;BME280;64005;55.160;36.002;2024-02-26T12:11:28;99914.69;;;3.49;69.89
75424;BME280;64005;55.160;36.002;2024-02-26T12:14:02;99920.19;;;3.49;69.52
75424;BME280;64005;55.160;36.002;2024-02-26T12:16:38;99924.84;;;3.48;69.44
75424;BME280;64005;55.160;36.002;2024-02-26T12:19:07;99914.94;;;3.47;69.31
75424;BME280;64005;55.160;36.002;2024-02-26T12:21:59;99909.16;;;3.44;69.75
75424;BME280;64005;55.160;36.002;2024-02-26T12:24:27;99922.66;;;3.45;69.11
75424;BME280;64005;55.160;36.002;2024-02-26T12:26:54;99923.44;;;3.41;69.59
75424;BME280;64005;55.160;36.002;2024-02-26T12:29:21;99924.25;;;3.36;69.22
75424;BME280;64005;55.160;36.002;2024-02-26T12:32:15;99925.91;;;3.37;69.31
75424;BME280;64005;55.160;36.002;2024-02-26T12:34:44;99915.72;;;3.38;69.13
75424;BME280;64005;55.160;36.002;2024-02-26T12:37:12;99917.94;;;3.41;69.13
75424;BME280;64005;55.160;36.002;2024-02-26T12:39:40;99917.41;;;3.39;69.33
75424;BME280;64005;55.160;36.002;2024-02-26T12:42:10;99906.41;;;3.39;69.29
75424;BME280;64005;55.160;36.002;2024-02-26T12:44:37;99920.69;;;3.41;69.60
75424;BME280;64005;55.160;36.002;2024-02-26T12:47:05;99914.09;;;3.42;68.83
75424;BME280;64005;55.160;36.002;2024-02-26T12:49:47;99909.75;;;3.51;70.05
75424;BME280;64005;55.160;36.002;2024-02-26T12:52:47;99910.59;;;3.56;69.72
75424;BME280;64005;55.160;36.002;2024-02-26T12:55:17;99904.03;;;3.68;69.55
75424;BME280;64005;55.160;36.002;2024-02-26T12:57:48;99904.63;;;3.75;69.60
75424;BME280;64005;55.160;36.002;2024-02-26T13:00:32;99897.75;;;3.77;68.97
75424;BME280;64005;55.160;36.002;2024-02-26T13:03:17;99902.44;;;3.77;68.80
75424;BME280;64005;55.160;36.002;2024-02-26T13:08:58;99904.63;;;3.80;68.70
75424;BME280;64005;55.160;36.002;2024-02-26T13:11:25;99916.47;;;3.80;68.84
75424;BME280;64005;55.160;36.002;2024-02-26T13:13:54;99904.09;;;3.83;68.96
75424;BME280;64005;55.160;36.002;2024-02-26T13:19:27;99898.84;;;3.71;68.42
75424;BME280;64005;55.160;36.002;2024-02-26T13:21:55;99904.03;;;3.68;68.53
75424;BME280;64005;55.160;36.002;2024-02-26T13:24:24;99910.34;;;3.63;68.51
75424;BME280;64005;55.160;36.002;2024-02-26T13:26:54;99906.19;;;3.55;68.11
75424;BME280;64005;55.160;36.002;2024-02-26T13:29:22;99909.19;;;3.49;67.81
75424;BME280;64005;55.160;36.002;2024-02-26T13:31:54;99912.16;;;3.37;67.84